sensor_id;sensor_type;location;lat;lon;timestamp;pressure;altitude;pressure_sealevel;temperature;humidity
45255;BME280;30989;52.078;21.014;2023-05-06T00:01:01;165698.69;;;7.42;84.01
45255;BME280;30989;52.078;21.014;2023-05-06T00:03:26;165677.31;;;7.34;83.98
45255;BME280;30989;52.078;21.014;2023-05-06T00:05:52;165677.31;;;7.34;84.18
45255;BME280;30989;52.078;21.014;2023-05-06T00:08:18;165663.94;;;7.29;83.95
45255;BME280;30989;52.078;21.014;2023-05-06T00:10:43;165661.28;;;7.28;84.41
45255;BME280;30989;52.078;21.014;2023-05-06T00:13:09;165666.63;;;7.30;83.84
45255;BME280;30989;52.078;21.014;2023-05-06T00:15:35;165666.63;;;7.30;85.84
45255;BME280;30989;52.078;21.014;2023-05-06T00:18:01;165659.94;;;7.28;84.94
45255;BME280;30989;52.078;21.014;2023-05-06T00:20:27;165650.59;;;7.24;85.56
45255;BME280;30989;52.078;21.014;2023-05-06T00:22:53;165639.91;;;7.20;85.04
45255;BME280;30989;52.078;21.014;2023-05-06T00:25:18;165618.50;;;7.12;86.29
45255;BME280;30989;52.078;21.014;2023-05-06T00:27:44;165618.50;;;7.12;86.09
45255;BME280;30989;52.078;21.014;2023-05-06T00:30:10;165603.81;;;7.06;86.12
45255;BME280;30989;52.078;21.014;2023-05-06T00:32:36;165589.13;;;7.01;86.10
45255;BME280;30989;52.078;21.014;2023-05-06T00:35:02;165583.78;;;6.99;86.91
45255;BME280;30989;52.078;21.014;2023-05-06T00:37:27;165571.75;;;6.94;87.70
45255;BME280;30989;52.078;21.014;2023-05-06T00:39:53;165546.34;;;6.85;86.90
45255;BME280;30989;52.078;21.014;2023-05-06T00:42:18;165541.00;;;6.83;87.71
45255;BME280;30989;52.078;21.014;2023-05-06T00:44:46;165529.00;;;6.78;87.72
45255;BME280;30989;52.078;21.014;2023-05-06T00:47:12;165514.28;;;6.72;87.53
45255;BME280;30989;52.078;21.014;2023-05-06T00:49:38;165512.97;;;6.72;87.22
45255;BME280;30989;52.078;21.014;2023-05-06T00:52:03;165508.94;;;6.70;87.88
45255;BME280;30989;52.078;21.014;2023-05-06T00:54:29;165491.59;;;6.64;88.39
45255;BME280;30989;52.078;21.014;2023-05-06T00:56:55;165495.59;;;6.65;89.07
45255;BME280;30989;52.078;21.014;2023-05-06T00:59:21;165490.25;;;6.63;87.88
45255;BME280;30989;52.078;21.014;2023-05-06T01:01:47;165487.56;;;6.62;88.31
45255;BME280;30989;52.078;21.014;2023-05-06T01:04:13;165479.56;;;6.59;88.06
45255;BME280;30989;52.078;21.014;2023-05-06T01:09:34;165471.53;;;6.56;89.97
45255;BME280;30989;52.078;21.014;2023-05-06T01:12:10;165458.19;;;6.51;88.31
45255;BME280;30989;52.078;21.014;2023-05-06T01:14:58;165452.84;;;6.49;88.34
45255;BME280;30989;52.078;21.014;2023-05-06T01:17:26;165444.84;;;6.46;88.66
45255;BME280;30989;52.078;21.014;2023-05-06T01:19:57;165435.47;;;6.42;88.24
45255;BME280;30989;52.078;21.014;2023-05-06T01:22:25;165434.16;;;6.42;87.98
45255;BME280;30989;52.078;21.014;2023-05-06T01:24:52;165424.78;;;6.38;88.28
45255;BME280;30989;52.078;21.014;2023-05-06T01:27:20;165423.47;;;6.38;88.40
45255;BME280;30989;52.078;21.014;2023-05-06T01:29:46;165404.75;;;6.31;88.33
45255;BME280;30989;52.078;21.014;2023-05-06T01:35:39;165394.06;;;6.27;87.72
45255;BME280;30989;52.078;21.014;2023-05-06T01:37:51;165383.41;;;6.23;87.97
45255;BME280;30989;52.078;21.014;2023-05-06T01:40:24;165378.06;;;6.21;87.29
45255;BME280;30989;52.078;21.014;2023-05-06T01:42:51;165374.03;;;6.19;87.48
45255;BME280;30989;52.078;21.014;2023-05-06T01:45:18;165362.03;;;6.14;87.38
45255;BME280;30989;52.078;21.014;2023-05-06T01:47:46;165356.69;;;6.12;87.51
45255;BME280;30989;52.078;21.014;2023-05-06T01:50:12;165362.03;;;6.14;87.53
45255;BME280;30989;52.078;21.014;2023-05-06T01:52:38;165363.34;;;6.15;87.00
45255;BME280;30989;52.078;21.014;2023-05-06T01:55:05;165351.34;;;6.10;86.51
45255;BME280;30989;52.078;21.014;2023-05-06T01:57:30;165354.00;;;6.11;86.44
45255;BME280;30989;52.078;21.014;2023-05-06T01:59:56;165351.34;;;6.10;86.55
45255;BME280;30989;52.078;21.014;2023-05-06T02:02:22;165359.34;;;6.13;86.82
45255;BME280;30989;52.078;21.014;2023-05-06T02:04:51;165360.69;;;6.14;86.20
45255;BME280;30989;52.078;21.014;2023-05-06T02:07:17;165351.34;;;6.10;86.03
45255;BME280;30989;52.078;21.014;2023-05-06T02:09:42;165355.34;;;6.12;85.72
45255;BME280;30989;52.078;21.014;2023-05-06T02:12:09;165346.00;;;6.08;85.70
45255;BME280;30989;52.078;21.014;2023-05-06T02:14:35;165356.69;;;6.12;85.24
45255;BME280;30989;52.078;21.014;2023-05-06T02:17:05;165343.31;;;6.07;84.66
45255;BME280;30989;52.078;21.014;2023-05-06T02:19:30;165347.34;;;6.09;83.92
45255;BME280;30989;52.078;21.014;2023-05-06T02:21:56;165342.00;;;6.07;84.31
45255;BME280;30989;52.078;21.014;2023-05-06T02:24:22;165346.00;;;6.08;83.18
45255;BME280;30989;52.078;21.014;2023-05-06T02:26:47;165343.31;;;6.07;83.38
45255;BME280;30989;52.078;21.014;2023-05-06T02:29:13;165347.34;;;6.09;83.23
45255;BME280;30989;52.078;21.014;2023-05-06T02:31:38;165332.66;;;6.03;83.20
45255;BME280;30989;52.078;21.014;2023-05-06T02:34:04;165335.31;;;6.04;83.07
45255;BME280;30989;52.078;21.014;2023-05-06T02:36:29;165327.31;;;6.01;83.51
45255;BME280;30989;52.078;21.014;2023-05-06T02:38:55;165319.28;;;5.98;83.07
45255;BME280;30989;52.078;21.014;2023-05-06T02:41:20;165313.94;;;5.96;83.52
45255;BME280;30989;52.078;21.014;2023-05-06T02:43:46;165311.28;;;5.95;83.17
45255;BME280;30989;52.078;21.014;2023-05-06T02:46:11;165311.28;;;5.95;82.70
45255;BME280;30989;52.078;21.014;2023-05-06T02:48:36;165311.28;;;5.95;82.93
45255;BME280;30989;52.078;21.014;2023-05-06T02:51:02;165305.94;;;5.93;82.90
45255;BME280;30989;52.078;21.014;2023-05-06T02:53:28;165305.94;;;5.93;82.50
45255;BME280;30989;52.078;21.014;2023-05-06T02:55:53;165305.94;;;5.93;82.45
45255;BME280;30989;52.078;21.014;2023-05-06T02:58:19;165284.53;;;5.85;82.50
45255;BME280;30989;52.078;21.014;2023-05-06T03:00:44;165291.19;;;5.88;82.81
45255;BME280;30989;52.078;21.014;2023-05-06T03:03:09;165276.50;;;5.82;82.88
45255;BME280;30989;52.078;21.014;2023-05-06T03:05:35;165265.84;;;5.78;82.77
45255;BME280;30989;52.078;21.014;2023-05-06T03:08:00;165260.50;;;5.76;83.01
45255;BME280;30989;52.078;21.014;2023-05-06T03:10:27;165241.81;;;5.69;83.27
45255;BME280;30989;52.078;21.014;2023-05-06T03:12:54;165257.81;;;5.75;83.21
45255;BME280;30989;52.078;21.014;2023-05-06T03:15:20;165249.81;;;5.72;83.10
45255;BME280;30989;52.078;21.014;2023-05-06T03:17:46;165257.81;;;5.75;82.78
45255;BME280;30989;52.078;21.014;2023-05-06T03:20:12;165260.50;;;5.76;82.78
45255;BME280;30989;52.078;21.014;2023-05-06T03:22:41;165267.16;;;5.78;83.07
45255;BME280;30989;52.078;21.014;2023-05-06T03:25:07;165285.84;;;5.86;82.92
45255;BME280;30989;52.078;21.014;2023-05-06T03:27:34;165284.53;;;5.85;83.64
45255;BME280;30989;52.078;21.014;2023-05-06T03:30:07;165281.84;;;5.84;83.24
45255;BME280;30989;52.078;21.014;2023-05-06T03:32:33;165292.53;;;5.88;83.02
45255;BME280;30989;52.078;21.014;2023-05-06T03:34:59;165297.94;;;5.90;83.10
45255;BME280;30989;52.078;21.014;2023-05-06T03:37:24;165281.84;;;5.84;83.07
45255;BME280;30989;52.078;21.014;2023-05-06T03:39:53;165319.28;;;5.98;83.29
45255;BME280;30989;52.078;21.014;2023-05-06T03:42:22;165321.97;;;5.99;83.49
45255;BME280;30989;52.078;21.014;2023-05-06T03:44:48;165327.31;;;6.01;84.50
45255;BME280;30989;52.078;21.014;2023-05-06T03:47:15;165339.31;;;6.06;83.41
45255;BME280;30989;52.078;21.014;2023-05-06T03:49:42;165342.00;;;6.07;83.33
45255;BME280;30989;52.078;21.014;2023-05-06T03:52:07;165363.34;;;6.15;83.15
45255;BME280;30989;52.078;21.014;2023-05-06T03:54:34;165367.38;;;6.17;83.03
45255;BME280;30989;52.078;21.014;2023-05-06T03:56:59;165364.69;;;6.16;83.04
45255;BME280;30989;52.078;21.014;2023-05-06T03:59:25;165363.34;;;6.15;82.90
45255;BME280;30989;52.078;21.014;2023-05-06T04:01:51;165368.69;;;6.17;83.28
45255;BME280;30989;52.078;21.014;2023-05-06T04:04:17;165390.06;;;6.25;83.23
45255;BME280;30989;52.078;21.014;2023-05-06T04:06:43;165386.06;;;6.24;84.08
45255;BME280;30989;52.078;21.014;2023-05-06T04:09:08;165364.69;;;6.16;84.30
45255;BME280;30989;52.078;21.014;2023-05-06T04:11:37;165354.00;;;6.11;84.48
45255;BME280;30989;52.078;21.014;2023-05-06T04:14:04;165354.00;;;6.11;83.93
45255;BME280;30989;52.078;21.014;2023-05-06T04:16:30;165355.34;;;6.12;83.85
45255;BME280;30989;52.078;21.014;2023-05-06T04:18:56;165359.34;;;6.13;84.56
45255;BME280;30989;52.078;21.014;2023-05-06T04:21:22;165375.38;;;6.20;83.95
45255;BME280;30989;52.078;21.014;2023-05-06T04:23:54;165394.06;;;6.27;84.76
45255;BME280;30989;52.078;21.014;2023-05-06T04:26:25;165408.75;;;6.32;84.50
45255;BME280;30989;52.078;21.014;2023-05-06T04:28:50;165415.44;;;6.35;84.31
45255;BME280;30989;52.078;21.014;2023-05-06T04:31:16;165426.13;;;6.39;84.44
45255;BME280;30989;52.078;21.014;2023-05-06T04:33:48;165442.16;;;6.45;84.58
45255;BME280;30989;52.078;21.014;2023-05-06T04:36:17;165435.47;;;6.42;83.89
45255;BME280;30989;52.078;21.014;2023-05-06T04:38:55;165436.81;;;6.43;84.14
45255;BME280;30989;52.078;21.014;2023-05-06T04:41:21;165431.47;;;6.41;83.91
45255;BME280;30989;52.078;21.014;2023-05-06T04:43:48;165434.16;;;6.42;84.75
45255;BME280;30989;52.078;21.014;2023-05-06T04:46:18;165432.81;;;6.41;84.94
45255;BME280;30989;52.078;21.014;2023-05-06T04:48:45;165432.81;;;6.41;85.67
45255;BME280;30989;52.078;21.014;2023-05-06T04:51:12;165435.47;;;6.42;85.05
45255;BME280;30989;52.078;21.014;2023-05-06T04:53:38;165439.50;;;6.44;85.25
45255;BME280;30989;52.078;21.014;2023-05-06T04:56:06;165447.50;;;6.47;85.81
45255;BME280;30989;52.078;21.014;2023-05-06T04:58:32;165458.19;;;6.51;85.51
45255;BME280;30989;52.078;21.014;2023-05-06T05:01:03;165476.88;;;6.58;85.92
45255;BME280;30989;52.078;21.014;2023-05-06T05:03:28;165511.63;;;6.71;85.97
45255;BME280;30989;52.078;21.014;2023-05-06T05:05:56;165542.34;;;6.83;85.65
45255;BME280;30989;52.078;21.014;2023-05-06T05:08:22;165562.38;;;6.91;84.42
45255;BME280;30989;52.078;21.014;2023-05-06T05:10:48;165578.44;;;6.97;84.29
45255;BME280;30989;52.078;21.014;2023-05-06T05:13:18;165610.50;;;7.09;83.38
45255;BME280;30989;52.078;21.014;2023-05-06T05:15:45;165631.88;;;7.17;83.27
45255;BME280;30989;52.078;21.014;2023-05-06T05:18:13;165688.00;;;7.38;82.39
45255;BME280;30989;52.078;21.014;2023-05-06T05:20:38;165730.78;;;7.55;82.17
45255;BME280;30989;52.078;21.014;2023-05-06T05:23:06;165756.19;;;7.64;80.26
45255;BME280;30989;52.078;21.014;2023-05-06T05:25:32;165785.59;;;7.75;81.55
45255;BME280;30989;52.078;21.014;2023-05-06T05:27:57;165820.34;;;7.89;79.58
45255;BME280;30989;52.078;21.014;2023-05-06T05:30:24;165827.03;;;7.91;78.67
45255;BME280;30989;52.078;21.014;2023-05-06T05:32:49;165817.66;;;7.88;78.36
45255;BME280;30989;52.078;21.014;2023-05-06T05:35:15;165827.03;;;7.91;78.60
45255;BME280;30989;52.078;21.014;2023-05-06T05:37:42;165824.38;;;7.90;77.82
45255;BME280;30989;52.078;21.014;2023-05-06T05:40:08;165833.72;;;7.94;78.69
45255;BME280;30989;52.078;21.014;2023-05-06T05:42:36;165841.75;;;7.97;77.23
45255;BME280;30989;52.078;21.014;2023-05-06T05:45:08;165848.44;;;7.99;77.78
45255;BME280;30989;52.078;21.014;2023-05-06T05:47:34;165852.44;;;8.01;77.44
45255;BME280;30989;52.078;21.014;2023-05-06T05:50:00;165884.53;;;8.13;77.46
45255;BME280;30989;52.078;21.014;2023-05-06T05:52:26;165893.88;;;8.17;76.88
45255;BME280;30989;52.078;21.014;2023-05-06T05:54:52;165905.94;;;8.21;76.32
45255;BME280;30989;52.078;21.014;2023-05-06T05:57:18;165900.59;;;8.19;75.54
45255;BME280;30989;52.078;21.014;2023-05-06T05:59:44;165915.28;;;8.25;75.11
45255;BME280;30989;52.078;21.014;2023-05-06T06:02:10;165936.75;;;8.33;76.01
45255;BME280;30989;52.078;21.014;2023-05-06T06:04:35;165958.13;;;8.41;75.42
45255;BME280;30989;52.078;21.014;2023-05-06T06:07:02;165968.84;;;8.45;74.58
45255;BME280;30989;52.078;21.014;2023-05-06T06:09:33;165947.44;;;8.37;73.97
45255;BME280;30989;52.078;21.014;2023-05-06T06:11:59;165958.13;;;8.41;74.40
45255;BME280;30989;52.078;21.014;2023-05-06T06:14:24;165984.88;;;8.51;74.61
45255;BME280;30989;52.078;21.014;2023-05-06T06:16:50;166011.63;;;8.61;74.70
45255;BME280;30989;52.078;21.014;2023-05-06T06:19:16;166027.69;;;8.67;73.90
45255;BME280;30989;52.078;21.014;2023-05-06T06:21:43;166039.72;;;8.72;72.74
45255;BME280;30989;52.078;21.014;2023-05-06T06:24:08;166021.00;;;8.65;72.43
45255;BME280;30989;52.078;21.014;2023-05-06T06:26:34;166022.34;;;8.65;73.38
45255;BME280;30989;52.078;21.014;2023-05-06T06:29:00;166035.72;;;8.70;73.79
45255;BME280;30989;52.078;21.014;2023-05-06T06:31:25;166055.78;;;8.78;73.32
45255;BME280;30989;52.078;21.014;2023-05-06T06:33:51;166086.56;;;8.90;73.10
45255;BME280;30989;52.078;21.014;2023-05-06T06:36:16;166095.91;;;8.93;72.55
45255;BME280;30989;52.078;21.014;2023-05-06T06:38:42;166101.28;;;8.95;72.97
45255;BME280;30989;52.078;21.014;2023-05-06T06:41:08;166140.06;;;9.10;72.66
45255;BME280;30989;52.078;21.014;2023-05-06T06:43:33;166145.44;;;9.12;71.52
45255;BME280;30989;52.078;21.014;2023-05-06T06:46:00;166150.78;;;9.14;71.73
45255;BME280;30989;52.078;21.014;2023-05-06T06:48:25;166156.13;;;9.16;71.16
45255;BME280;30989;52.078;21.014;2023-05-06T06:50:51;166158.81;;;9.17;71.01
45255;BME280;30989;52.078;21.014;2023-05-06T06:53:16;166157.47;;;9.17;71.39
45255;BME280;30989;52.078;21.014;2023-05-06T06:55:45;166174.88;;;9.23;70.93
45255;BME280;30989;52.078;21.014;2023-05-06T06:58:10;166170.84;;;9.22;70.34
45255;BME280;30989;52.078;21.014;2023-05-06T07:00:36;166189.59;;;9.29;71.15
45255;BME280;30989;52.078;21.014;2023-05-06T07:03:01;166189.59;;;9.29;70.84
45255;BME280;30989;52.078;21.014;2023-05-06T07:05:27;166200.28;;;9.33;71.62
45255;BME280;30989;52.078;21.014;2023-05-06T07:07:53;166228.38;;;9.44;71.35
45255;BME280;30989;52.078;21.014;2023-05-06T07:10:19;166247.13;;;9.51;71.25
45255;BME280;30989;52.078;21.014;2023-05-06T07:12:45;166285.94;;;9.65;70.53
45255;BME280;30989;52.078;21.014;2023-05-06T07:15:10;166315.41;;;9.77;69.05
45255;BME280;30989;52.078;21.014;2023-05-06T07:17:36;166324.78;;;9.80;69.73
45255;BME280;30989;52.078;21.014;2023-05-06T07:20:01;166382.34;;;10.02;69.25
45255;BME280;30989;52.078;21.014;2023-05-06T07:22:27;166402.41;;;10.10;66.44
45255;BME280;30989;52.078;21.014;2023-05-06T07:24:53;166368.94;;;9.97;64.72
45255;BME280;30989;52.078;21.014;2023-05-06T07:27:18;166364.94;;;9.95;65.40
45255;BME280;30989;52.078;21.014;2023-05-06T07:29:44;166391.72;;;10.06;65.97
45255;BME280;30989;52.078;21.014;2023-05-06T07:32:09;166413.13;;;10.14;65.39
45255;BME280;30989;52.078;21.014;2023-05-06T07:34:34;166415.81;;;10.15;63.45
45255;BME280;30989;52.078;21.014;2023-05-06T07:37:01;166385.00;;;10.03;63.13
45255;BME280;30989;52.078;21.014;2023-05-06T07:39:26;166397.06;;;10.08;63.30
45255;BME280;30989;52.078;21.014;2023-05-06T07:41:52;166405.09;;;10.11;64.42
45255;BME280;30989;52.078;21.014;2023-05-06T07:44:17;166442.63;;;10.25;63.04
45255;BME280;30989;52.078;21.014;2023-05-06T07:46:42;166474.78;;;10.37;62.76
45255;BME280;30989;52.078;21.014;2023-05-06T07:49:08;166500.28;;;10.47;62.02
45255;BME280;30989;52.078;21.014;2023-05-06T07:51:34;166506.97;;;10.49;61.13
45255;BME280;30989;52.078;21.014;2023-05-06T07:53:59;166511.00;;;10.51;61.09
45255;BME280;30989;52.078;21.014;2023-05-06T07:56:25;166520.34;;;10.54;60.88
45255;BME280;30989;52.078;21.014;2023-05-06T07:58:50;166519.03;;;10.54;59.97
45255;BME280;30989;52.078;21.014;2023-05-06T08:01:16;166506.97;;;10.49;57.97
45255;BME280;30989;52.078;21.014;2023-05-06T08:03:41;166493.56;;;10.44;57.94
45255;BME280;30989;52.078;21.014;2023-05-06T08:06:07;166472.09;;;10.36;56.87
45255;BME280;30989;52.078;21.014;2023-05-06T08:08:32;166445.31;;;10.26;58.49
45255;BME280;30989;52.078;21.014;2023-05-06T08:10:58;166437.28;;;10.23;58.50
45255;BME280;30989;52.078;21.014;2023-05-06T08:13:24;166439.97;;;10.24;58.08
45255;BME280;30989;52.078;21.014;2023-05-06T08:15:50;166431.94;;;10.21;59.06
45255;BME280;30989;52.078;21.014;2023-05-06T08:18:16;166429.25;;;10.20;58.47
45255;BME280;30989;52.078;21.014;2023-05-06T08:20:41;166450.69;;;10.28;57.78
45255;BME280;30989;52.078;21.014;2023-05-06T08:23:07;166474.78;;;10.37;58.53
45255;BME280;30989;52.078;21.014;2023-05-06T08:25:32;166492.25;;;10.44;58.35
45255;BME280;30989;52.078;21.014;2023-05-06T08:27:57;166498.94;;;10.46;56.78
45255;BME280;30989;52.078;21.014;2023-05-06T08:30:23;166501.59;;;10.47;57.76
45255;BME280;30989;52.078;21.014;2023-05-06T08:32:48;166519.03;;;10.54;58.18
45255;BME280;30989;52.078;21.014;2023-05-06T08:35:14;166539.13;;;10.61;57.97
45255;BME280;30989;52.078;21.014;2023-05-06T08:37:40;166552.50;;;10.67;56.48
45255;BME280;30989;52.078;21.014;2023-05-06T08:40:17;166544.47;;;10.63;56.89
45255;BME280;30989;52.078;21.014;2023-05-06T08:42:48;166561.88;;;10.70;57.41
45255;BME280;30989;52.078;21.014;2023-05-06T08:45:17;166579.28;;;10.77;57.15
45255;BME280;30989;52.078;21.014;2023-05-06T08:47:43;166580.63;;;10.77;55.50
45255;BME280;30989;52.078;21.014;2023-05-06T08:50:09;166590.00;;;10.81;56.26
45255;BME280;30989;52.078;21.014;2023-05-06T08:52:36;166608.75;;;10.88;57.38
45255;BME280;30989;52.078;21.014;2023-05-06T08:55:03;166638.25;;;10.99;57.63
45255;BME280;30989;52.078;21.014;2023-05-06T08:57:30;166628.88;;;10.95;57.98
45255;BME280;30989;52.078;21.014;2023-05-06T08:59:56;166632.88;;;10.97;57.66
45255;BME280;30989;52.078;21.014;2023-05-06T09:02:22;166635.56;;;10.98;58.19
45255;BME280;30989;52.078;21.014;2023-05-06T09:04:48;166661.00;;;11.08;59.05
45255;BME280;30989;52.078;21.014;2023-05-06T09:07:13;166662.34;;;11.08;58.38
45255;BME280;30989;52.078;21.014;2023-05-06T09:09:39;166658.34;;;11.07;57.68
45255;BME280;30989;52.078;21.014;2023-05-06T09:12:10;166636.91;;;10.98;58.42
45255;BME280;30989;52.078;21.014;2023-05-06T09:14:38;166608.75;;;10.88;59.14
45255;BME280;30989;52.078;21.014;2023-05-06T09:17:03;166588.66;;;10.80;59.49
45255;BME280;30989;52.078;21.014;2023-05-06T09:19:29;166583.31;;;10.78;59.29
45255;BME280;30989;52.078;21.014;2023-05-06T09:21:54;166541.78;;;10.62;59.39
45255;BME280;30989;52.078;21.014;2023-05-06T09:24:20;166563.22;;;10.71;60.95
45255;BME280;30989;52.078;21.014;2023-05-06T09:26:46;166549.81;;;10.65;60.38
45255;BME280;30989;52.078;21.014;2023-05-06T09:29:12;166563.22;;;10.71;60.91
45255;BME280;30989;52.078;21.014;2023-05-06T09:31:42;166577.97;;;10.76;61.08
45255;BME280;30989;52.078;21.014;2023-05-06T09:34:08;166590.00;;;10.81;61.71
45255;BME280;30989;52.078;21.014;2023-05-06T09:36:34;166604.75;;;10.86;61.21
45255;BME280;30989;52.078;21.014;2023-05-06T09:39:00;166624.84;;;10.94;61.63
45255;BME280;30989;52.078;21.014;2023-05-06T09:41:26;166635.56;;;10.98;61.04
45255;BME280;30989;52.078;21.014;2023-05-06T09:43:52;166651.63;;;11.04;60.85
45255;BME280;30989;52.078;21.014;2023-05-06T09:46:20;166658.34;;;11.07;60.78
45255;BME280;30989;52.078;21.014;2023-05-06T09:48:47;166665.03;;;11.09;60.54
45255;BME280;30989;52.078;21.014;2023-05-06T09:51:13;166651.63;;;11.04;60.73
45255;BME280;30989;52.078;21.014;2023-05-06T09:53:39;166678.44;;;11.14;59.90
45255;BME280;30989;52.078;21.014;2023-05-06T09:56:06;166666.38;;;11.10;59.17
45255;BME280;30989;52.078;21.014;2023-05-06T09:58:34;166624.84;;;10.94;60.13
45255;BME280;30989;52.078;21.014;2023-05-06T10:01:00;166622.16;;;10.93;59.17
45255;BME280;30989;52.078;21.014;2023-05-06T10:03:28;166595.38;;;10.83;58.74
45255;BME280;30989;52.078;21.014;2023-05-06T10:05:54;166598.03;;;10.84;60.36
45255;BME280;30989;52.078;21.014;2023-05-06T10:08:23;166600.72;;;10.85;58.43
45255;BME280;30989;52.078;21.014;2023-05-06T10:10:49;166600.72;;;10.85;57.87
45255;BME280;30989;52.078;21.014;2023-05-06T10:13:15;166575.28;;;10.75;58.08
45255;BME280;30989;52.078;21.014;2023-05-06T10:15:42;166587.34;;;10.80;57.07
45255;BME280;30989;52.078;21.014;2023-05-06T10:18:09;166587.34;;;10.80;55.93
45255;BME280;30989;52.078;21.014;2023-05-06T10:20:35;166598.03;;;10.84;58.24
45255;BME280;30989;52.078;21.014;2023-05-06T10:25:41;166624.84;;;10.94;55.41
45255;BME280;30989;52.078;21.014;2023-05-06T10:28:08;166627.53;;;10.95;56.72
45255;BME280;30989;52.078;21.014;2023-05-06T10:30:35;166623.50;;;10.93;56.24
45255;BME280;30989;52.078;21.014;2023-05-06T10:33:09;166630.19;;;10.96;55.92
45255;BME280;30989;52.078;21.014;2023-05-06T10:40:45;166616.81;;;10.91;54.66
45255;BME280;30989;52.078;21.014;2023-05-06T10:43:32;166599.38;;;10.84;55.72
45255;BME280;30989;52.078;21.014;2023-05-06T10:48:30;166622.16;;;10.93;54.66
45255;BME280;30989;52.078;21.014;2023-05-06T10:54:08;166587.34;;;10.80;56.69
45255;BME280;30989;52.078;21.014;2023-05-06T10:57:01;166579.28;;;10.77;55.06
45255;BME280;30989;52.078;21.014;2023-05-06T10:59:27;166549.81;;;10.65;54.84
45255;BME280;30989;52.078;21.014;2023-05-06T11:04:21;166500.28;;;10.47;56.41
45255;BME280;30989;52.078;21.014;2023-05-06T11:06:48;166501.59;;;10.47;56.51
45255;BME280;30989;52.078;21.014;2023-05-06T11:09:19;166490.91;;;10.43;55.66
45255;BME280;30989;52.078;21.014;2023-05-06T11:11:49;166477.44;;;10.38;56.43
45255;BME280;30989;52.078;21.014;2023-05-06T11:14:24;166476.13;;;10.38;56.50
45255;BME280;30989;52.078;21.014;2023-05-06T11:16:51;166472.09;;;10.36;57.88
45255;BME280;30989;52.078;21.014;2023-05-06T11:19:20;166490.91;;;10.43;57.70
45255;BME280;30989;52.078;21.014;2023-05-06T11:21:47;166489.56;;;10.43;58.24
45255;BME280;30989;52.078;21.014;2023-05-06T11:24:12;166469.41;;;10.35;59.19
45255;BME280;30989;52.078;21.014;2023-05-06T11:26:39;166469.41;;;10.35;58.13
45255;BME280;30989;52.078;21.014;2023-05-06T11:29:09;166448.00;;;10.27;59.30
45255;BME280;30989;52.078;21.014;2023-05-06T11:31:39;166431.94;;;10.21;60.42
45255;BME280;30989;52.078;21.014;2023-05-06T11:34:07;166414.47;;;10.14;61.26
45255;BME280;30989;52.078;21.014;2023-05-06T11:36:33;166385.00;;;10.03;62.01
45255;BME280;30989;52.078;21.014;2023-05-06T11:39:04;166372.97;;;9.98;62.25
45255;BME280;30989;52.078;21.014;2023-05-06T11:41:30;166356.91;;;9.92;62.72
45255;BME280;30989;52.078;21.014;2023-05-06T11:43:56;166344.84;;;9.88;64.28
45255;BME280;30989;52.078;21.014;2023-05-06T11:46:22;166335.47;;;9.84;63.54
45255;BME280;30989;52.078;21.014;2023-05-06T11:48:49;166334.13;;;9.84;64.23
45255;BME280;30989;52.078;21.014;2023-05-06T11:51:15;166322.09;;;9.79;64.52
45255;BME280;30989;52.078;21.014;2023-05-06T11:53:40;166303.34;;;9.72;65.06
45255;BME280;30989;52.078;21.014;2023-05-06T11:56:06;166289.97;;;9.67;65.94
45255;BME280;30989;52.078;21.014;2023-05-06T11:58:32;166263.19;;;9.57;66.41
45255;BME280;30989;52.078;21.014;2023-05-06T12:00:59;166247.13;;;9.51;65.96
45255;BME280;30989;52.078;21.014;2023-05-06T12:03:26;166209.66;;;9.36;66.71
45255;BME280;30989;52.078;21.014;2023-05-06T12:05:53;166188.25;;;9.28;68.22
45255;BME280;30989;52.078;21.014;2023-05-06T12:08:24;166184.22;;;9.27;69.94
45255;BME280;30989;52.078;21.014;2023-05-06T12:10:51;166162.81;;;9.19;69.68
45255;BME280;30989;52.078;21.014;2023-05-06T12:13:17;166149.44;;;9.14;69.79
45255;BME280;30989;52.078;21.014;2023-05-06T12:15:44;166110.63;;;8.99;71.07
45255;BME280;30989;52.078;21.014;2023-05-06T12:18:11;166097.25;;;8.94;71.28
45255;BME280;30989;52.078;21.014;2023-05-06T12:20:37;166082.53;;;8.88;72.48
45255;BME280;30989;52.078;21.014;2023-05-06T12:23:13;166059.78;;;8.80;72.55
45255;BME280;30989;52.078;21.014;2023-05-06T12:25:40;166039.72;;;8.72;72.92
45255;BME280;30989;52.078;21.014;2023-05-06T12:28:19;166017.00;;;8.63;74.15
45255;BME280;30989;52.078;21.014;2023-05-06T12:30:46;166014.31;;;8.62;74.78
45255;BME280;30989;52.078;21.014;2023-05-06T12:33:12;166002.28;;;8.58;75.52
45255;BME280;30989;52.078;21.014;2023-05-06T12:35:38;165988.91;;;8.53;76.41
45255;BME280;30989;52.078;21.014;2023-05-06T12:38:11;165976.88;;;8.48;77.80
45255;BME280;30989;52.078;21.014;2023-05-06T12:40:37;165950.09;;;8.38;79.64
45255;BME280;30989;52.078;21.014;2023-05-06T12:43:03;165942.09;;;8.35;79.57
45255;BME280;30989;52.078;21.014;2023-05-06T12:45:28;165912.63;;;8.24;79.63
45255;BME280;30989;52.078;21.014;2023-05-06T12:47:56;165912.63;;;8.24;81.42
45255;BME280;30989;52.078;21.014;2023-05-06T12:52:56;165867.16;;;8.06;85.39
45255;BME280;30989;52.078;21.014;2023-05-06T12:55:21;165845.75;;;7.98;84.53
45255;BME280;30989;52.078;21.014;2023-05-06T12:57:50;165832.38;;;7.93;86.41
45255;BME280;30989;52.078;21.014;2023-05-06T13:00:17;165816.34;;;7.87;86.81
45255;BME280;30989;52.078;21.014;2023-05-06T13:02:42;165802.97;;;7.82;88.19
45255;BME280;30989;52.078;21.014;2023-05-06T13:05:08;165790.94;;;7.78;90.36
45255;BME280;30989;52.078;21.014;2023-05-06T13:07:33;165788.25;;;7.76;89.86
45255;BME280;30989;52.078;21.014;2023-05-06T13:09:59;165778.91;;;7.73;90.00